createdAt,value
2023-02-03T00:02:24.704Z,83.24
2023-02-03T00:04:44.526Z,83.24
2023-02-03T00:04:49.932Z,83.24
2023-02-03T00:09:19.952Z,83.15
2023-02-03T00:09:44.617Z,83.15
2023-02-03T00:14:07.023Z,83.13
2023-02-03T00:14:44.615Z,83.13
2023-02-03T00:17:04.850Z,82.70
2023-02-03T00:19:44.715Z,82.70
2023-02-03T00:24:44.542Z,82.89
2023-02-03T00:25:33.609Z,82.89
2023-02-03T00:29:44.549Z,82.68
2023-02-03T00:34:44.864Z,83.02
2023-02-03T00:39:44.501Z,82.75
2023-02-03T00:44:00.594Z,82.58
2023-02-03T00:44:44.536Z,82.58
2023-02-03T00:49:44.851Z,82.46
2023-02-03T00:50:40.933Z,82.46
2023-02-03T00:54:44.493Z,82.37
2023-02-03T00:54:52.513Z,82.37
2023-02-03T00:56:25.203Z,82.21
2023-02-03T00:59:44.471Z,82.21
2023-02-03T01:00:12.402Z,82.21
2023-02-03T01:03:50.511Z,82.26
2023-02-03T01:04:44.642Z,82.26
2023-02-03T01:09:44.493Z,82.06
2023-02-03T01:14:44.663Z,81.76
2023-02-03T01:19:44.607Z,81.57
2023-02-03T01:24:44.645Z,81.40
2023-02-03T01:29:44.607Z,81.19
2023-02-03T01:34:44.631Z,81.08
2023-02-03T01:39:44.510Z,81.10
2023-02-03T01:44:46.762Z,80.90
2023-02-03T01:49:48.715Z,80.47
2023-02-03T01:54:46.925Z,80.14
2023-02-03T01:54:53.315Z,80.14
2023-02-03T01:58:40.380Z,79.53
2023-02-03T01:59:47.142Z,79.53
2023-02-03T02:04:53.165Z,78.56
2023-02-03T02:09:45.803Z,78.02
2023-02-03T02:11:44.447Z,76.97
2023-02-03T02:14:46.711Z,76.97
2023-02-03T02:16:40.362Z,76.86
2023-02-03T02:20:03.485Z,76.86
2023-02-03T02:25:04.282Z,76.61
2023-02-03T02:30:04.534Z,75.72
2023-02-03T02:34:54.241Z,75.95
2023-02-03T02:39:52.196Z,75.05
2023-02-03T02:44:49.753Z,75.65
2023-02-03T02:49:52.836Z,75.25
2023-02-03T02:53:32.773Z,75.81
2023-02-03T02:54:50.390Z,75.81
2023-02-03T02:59:44.575Z,75.95
2023-02-03T03:04:47.588Z,76.33
2023-02-03T03:09:49.703Z,76.25
2023-02-03T03:14:48.943Z,76.62
2023-02-03T03:17:50.614Z,76.48
2023-02-03T03:19:49.426Z,76.48
2023-02-03T03:24:51.865Z,76.83
2023-02-03T03:29:49.434Z,77.20
2023-02-03T03:34:44.762Z,77.46
2023-02-03T03:39:47.414Z,77.90
2023-02-03T03:44:53.575Z,77.99
2023-02-03T03:49:46.724Z,78.20
2023-02-03T03:54:46.011Z,78.34
2023-02-03T03:57:26.526Z,78.51
2023-02-03T03:59:47.287Z,78.51
2023-02-03T04:04:45.533Z,78.74
2023-02-03T04:09:45.105Z,79.11
2023-02-03T04:14:44.497Z,79.19
2023-02-03T04:19:44.525Z,79.27
2023-02-03T04:24:44.638Z,79.40
2023-02-03T04:24:49.222Z,79.40
2023-02-03T04:29:46.568Z,79.58
2023-02-03T04:34:40.621Z,79.72
2023-02-03T04:34:44.131Z,79.72
2023-02-03T04:39:44.662Z,79.88
2023-02-03T04:44:44.319Z,79.85
2023-02-03T04:49:44.909Z,79.90
2023-02-03T04:50:23.348Z,79.90
2023-02-03T04:52:13.243Z,80.03
2023-02-03T04:54:44.296Z,80.03
2023-02-03T04:58:14.669Z,80.11
2023-02-03T04:59:44.275Z,80.11
2023-02-03T05:03:58.440Z,80.07
2023-02-03T05:04:44.281Z,80.07
2023-02-03T05:09:44.272Z,80.21
2023-02-03T05:14:44.789Z,80.40
2023-02-03T05:18:34.442Z,80.57
2023-02-03T05:19:44.236Z,80.57
2023-02-03T05:20:54.430Z,80.78
2023-02-03T05:23:28.103Z,80.78
2023-02-03T05:24:44.271Z,80.78
2023-02-03T05:28:12.291Z,80.95
2023-02-03T05:29:44.275Z,80.95
2023-02-03T05:34:44.378Z,81.22
2023-02-03T05:39:07.924Z,81.47
2023-02-03T05:39:44.231Z,81.47
2023-02-03T05:44:44.227Z,81.73
2023-02-03T05:49:44.424Z,81.82
2023-02-03T05:50:26.311Z,81.82
2023-02-03T05:54:44.282Z,81.85
2023-02-03T05:59:44.262Z,81.88
2023-02-03T06:04:44.628Z,81.84
2023-02-03T06:08:56.951Z,81.78
2023-02-03T06:09:44.291Z,81.78
2023-02-03T06:13:20.961Z,81.71
2023-02-03T06:14:44.251Z,81.71
2023-02-03T06:19:44.562Z,81.84
2023-02-03T06:23:19.312Z,81.91
2023-02-03T06:24:45.305Z,81.91
2023-02-03T06:29:44.212Z,81.97
2023-02-03T06:34:44.480Z,82.02
2023-02-03T06:39:44.211Z,82.06
2023-02-03T06:40:48.137Z,81.95
2023-02-03T06:42:29.853Z,81.95
2023-02-03T06:44:08.731Z,81.95
2023-02-03T06:44:44.317Z,81.95
2023-02-03T06:48:46.963Z,81.81
2023-02-03T06:49:44.161Z,81.81
2023-02-03T06:54:44.488Z,81.44
2023-02-03T06:59:44.372Z,81.10
2023-02-03T07:00:14.685Z,81.10
2023-02-03T07:04:07.313Z,80.94
2023-02-03T07:04:44.235Z,80.94
2023-02-03T07:09:44.217Z,80.31
2023-02-03T07:11:33.767Z,79.62
2023-02-03T07:14:44.182Z,79.62
2023-02-03T07:19:46.241Z,78.87
2023-02-03T07:21:16.899Z,78.09
2023-02-03T07:24:44.486Z,78.09
2023-02-03T07:29:44.225Z,77.32
2023-02-03T07:34:44.125Z,76.62
2023-02-03T07:39:46.232Z,75.66
2023-02-03T07:44:44.105Z,75.26
2023-02-03T07:45:08.855Z,75.26
2023-02-03T07:49:44.127Z,74.01
2023-02-03T07:54:44.520Z,73.25
2023-02-03T07:58:53.757Z,72.70
2023-02-03T07:59:44.217Z,72.70
2023-02-03T08:02:39.003Z,70.27
2023-02-03T08:04:44.815Z,70.27
2023-02-03T08:09:44.187Z,67.26
2023-02-03T08:14:44.351Z,60.06
2023-02-03T08:19:45.205Z,52.22
2023-02-03T08:24:45.105Z,49.03
2023-02-03T08:29:45.166Z,52.47
2023-02-03T08:34:45.587Z,52.40
2023-02-03T08:37:53.266Z,52.34
2023-02-03T08:39:44.189Z,52.34
2023-02-03T08:44:44.592Z,49.22
2023-02-03T08:49:45.470Z,49.75
2023-02-03T08:54:44.216Z,49.04
2023-02-03T08:59:44.449Z,49.85
2023-02-03T09:04:46.035Z,48.22
2023-02-03T09:09:11.842Z,49.66
2023-02-03T09:09:44.121Z,49.66
2023-02-03T09:14:44.283Z,47.80
2023-02-03T09:18:27.691Z,48.60
2023-02-03T09:19:44.086Z,48.60
2023-02-03T09:24:44.113Z,51.58
2023-02-03T09:29:45.180Z,47.57
2023-02-03T09:34:44.351Z,46.37
2023-02-03T09:39:44.200Z,48.03
2023-02-03T09:44:50.245Z,46.64
2023-02-03T09:47:54.302Z,45.46
2023-02-03T09:49:49.417Z,45.46
2023-02-03T09:54:49.809Z,44.74
2023-02-03T09:55:53.933Z,42.02
2023-02-03T09:59:44.196Z,42.02
2023-02-03T10:04:55.048Z,39.09
2023-02-03T10:09:53.592Z,37.80
2023-02-03T10:11:07.121Z,41.43
2023-02-03T10:15:01.739Z,41.43
2023-02-03T10:17:25.434Z,41.95
2023-02-03T10:19:47.201Z,41.95
2023-02-03T10:24:19.293Z,39.71
2023-02-03T10:24:49.811Z,39.71
2023-02-03T10:27:18.505Z,41.09
2023-02-03T10:29:49.882Z,41.09
2023-02-03T10:34:46.799Z,45.26
2023-02-03T10:39:46.536Z,46.66
2023-02-03T10:40:30.252Z,46.66
2023-02-03T10:44:48.151Z,48.91
2023-02-03T10:49:45.201Z,47.33
2023-02-03T10:54:44.261Z,47.96
2023-02-03T10:55:36.767Z,47.96
2023-02-03T10:59:45.812Z,45.98
2023-02-03T11:02:22.082Z,45.93
2023-02-03T11:04:43.979Z,45.93
2023-02-03T11:09:44.253Z,45.85
2023-02-03T11:13:43.652Z,48.17
2023-02-03T11:14:46.877Z,48.17
2023-02-03T11:19:46.179Z,49.66
2023-02-03T11:24:44.876Z,50.53
2023-02-03T11:29:48.287Z,51.63
2023-02-03T11:32:30.785Z,52.30
2023-02-03T11:34:48.796Z,52.30
2023-02-03T11:39:44.023Z,52.87
2023-02-03T11:42:22.652Z,53.27
2023-02-03T11:44:43.932Z,53.27
2023-02-03T11:50:03.902Z,54.57
2023-02-03T11:53:47.866Z,54.88
2023-02-03T11:54:55.533Z,54.88
2023-02-03T11:59:54.570Z,54.53
2023-02-03T12:04:41.389Z,55.17
2023-02-03T12:04:54.043Z,55.17
2023-02-03T12:09:54.395Z,55.53
2023-02-03T12:11:12.636Z,55.61
2023-02-03T12:13:19.602Z,55.61
2023-02-03T12:14:51.699Z,55.61
2023-02-03T12:17:27.234Z,55.92
2023-02-03T12:19:54.493Z,55.92
2023-02-03T12:20:39.559Z,55.92
2023-02-03T12:24:52.208Z,55.52
2023-02-03T12:25:55.211Z,55.93
2023-02-03T12:29:48.457Z,55.93
2023-02-03T12:34:51.574Z,56.34
2023-02-03T12:39:49.416Z,56.75
2023-02-03T12:44:48.398Z,56.77
2023-02-03T12:49:50.681Z,56.95
2023-02-03T12:54:02.908Z,57.05
2023-02-03T12:54:48.777Z,57.05
2023-02-03T12:59:59.786Z,57.21
2023-02-03T13:04:51.690Z,57.23
2023-02-03T13:09:50.708Z,57.46
2023-02-03T13:14:48.886Z,57.53
2023-02-03T13:19:47.847Z,57.68
2023-02-03T13:20:50.482Z,58.73
2023-02-03T13:23:46.478Z,58.73
2023-02-03T13:24:48.193Z,58.73
2023-02-03T13:29:46.665Z,59.76
2023-02-03T13:30:04.064Z,59.76
2023-02-03T13:33:36.053Z,61.21
2023-02-03T13:34:54.920Z,61.21
2023-02-03T13:39:54.585Z,63.75
2023-02-03T13:42:30.380Z,64.91
2023-02-03T13:44:28.564Z,64.91
2023-02-03T13:44:46.640Z,64.91
2023-02-03T13:49:48.314Z,66.01
2023-02-03T13:54:03.396Z,67.57
2023-02-03T13:54:43.850Z,67.57
2023-02-03T13:59:45.196Z,68.27
2023-02-03T14:00:41.260Z,68.27
2023-02-03T14:04:53.058Z,69.06
2023-02-03T14:09:46.509Z,69.29
2023-02-03T14:15:02.325Z,71.02
2023-02-03T14:19:53.869Z,71.17
2023-02-03T14:23:12.675Z,72.09
2023-02-03T14:24:47.325Z,72.09
2023-02-03T14:30:06.376Z,74.59
2023-02-03T14:34:47.442Z,75.36
2023-02-03T14:40:06.504Z,75.75
2023-02-03T14:44:59.187Z,76.67
2023-02-03T14:50:01.429Z,77.46
2023-02-03T14:51:51.103Z,78.93
2023-02-03T14:54:57.557Z,78.93
2023-02-03T14:59:47.200Z,79.72
2023-02-03T15:04:45.242Z,80.88
2023-02-03T15:09:46.417Z,81.01
2023-02-03T15:12:36.879Z,81.89
2023-02-03T15:14:44.472Z,81.89
2023-02-03T15:17:22.614Z,82.34
2023-02-03T15:19:44.343Z,82.34
2023-02-03T15:24:44.095Z,82.83
2023-02-03T15:29:43.761Z,84.25
2023-02-03T15:34:08.517Z,83.67
2023-02-03T15:34:46.410Z,83.67
2023-02-03T15:39:51.736Z,84.58
2023-02-03T15:44:49.977Z,84.30
2023-02-03T15:49:45.597Z,83.14
2023-02-03T15:51:58.092Z,84.09
2023-02-03T15:54:52.764Z,84.09
2023-02-03T15:59:49.916Z,84.86
2023-02-03T16:04:45.125Z,85.01
2023-02-03T16:09:43.954Z,85.17
2023-02-03T16:10:46.488Z,85.09
2023-02-03T16:14:44.757Z,85.09
2023-02-03T16:19:50.522Z,85.65
2023-02-03T16:20:19.134Z,85.65
2023-02-03T16:24:45.310Z,85.71
2023-02-03T16:29:53.740Z,86.01
2023-02-03T16:33:59.027Z,86.70
2023-02-03T16:34:54.553Z,86.70
2023-02-03T16:39:53.847Z,86.20
2023-02-03T16:44:54.708Z,85.22
2023-02-03T16:48:25.355Z,85.61
2023-02-03T16:49:53.591Z,85.61
2023-02-03T16:52:36.525Z,85.54
2023-02-03T16:54:43.797Z,85.54
2023-02-03T16:56:40.399Z,86.44
2023-02-03T16:58:18.121Z,86.44
2023-02-03T16:59:44.213Z,86.44
2023-02-03T17:04:43.731Z,85.99
2023-02-03T17:09:43.944Z,86.49
2023-02-03T17:14:43.959Z,86.13
2023-02-03T17:17:34.500Z,85.75
2023-02-03T17:19:43.655Z,85.75
2023-02-03T17:24:44.583Z,86.25
2023-02-03T17:29:43.702Z,85.92
2023-02-03T17:34:43.871Z,85.64
2023-02-03T17:54:43.813Z,84.62
2023-02-03T17:59:14.359Z,84.26
2023-02-03T17:59:43.723Z,84.26
2023-02-03T18:04:16.196Z,84.32
2023-02-03T18:04:43.622Z,84.32
2023-02-03T18:09:14.775Z,84.23
2023-02-03T18:09:43.656Z,84.23
2023-02-03T18:14:43.727Z,84.13
2023-02-03T18:18:50.889Z,84.52
2023-02-03T18:19:46.742Z,84.52
2023-02-03T18:24:49.602Z,84.88
2023-02-03T18:25:51.413Z,84.61
2023-02-03T18:29:44.296Z,84.61
2023-02-03T18:34:44.077Z,84.53
2023-02-03T18:39:43.629Z,84.60
2023-02-03T18:42:55.271Z,84.52
2023-02-03T18:44:43.555Z,84.52
2023-02-03T18:49:44.750Z,84.32
2023-02-03T18:53:49.143Z,84.74
2023-02-03T18:54:43.549Z,84.74
2023-02-03T18:59:43.801Z,85.04
2023-02-03T19:04:43.756Z,84.94
2023-02-03T19:09:43.780Z,84.65
2023-02-03T19:14:43.651Z,84.86
2023-02-03T19:19:43.946Z,84.87
2023-02-03T19:20:51.621Z,84.66
2023-02-03T19:24:43.732Z,84.66
2023-02-03T19:28:58.240Z,84.84
2023-02-03T19:29:43.687Z,84.84
2023-02-03T19:34:44.153Z,84.78
2023-02-03T19:35:18.846Z,84.78
2023-02-03T19:39:46.668Z,84.37
2023-02-03T19:44:43.628Z,84.13
2023-02-03T19:49:05.634Z,84.15
2023-02-03T19:49:43.503Z,84.15
2023-02-03T19:54:43.581Z,83.88
2023-02-03T19:58:32.259Z,83.95
2023-02-03T19:59:43.775Z,83.95
2023-02-03T20:04:43.596Z,83.77
2023-02-03T20:05:10.114Z,83.77
2023-02-03T20:09:43.732Z,83.64
2023-02-03T20:14:44.153Z,83.77
2023-02-03T20:18:45.011Z,83.82
2023-02-03T20:19:43.500Z,83.82
2023-02-03T20:21:57.126Z,83.61
2023-02-03T20:24:43.744Z,83.61
2023-02-03T20:29:43.864Z,83.83
2023-02-03T20:34:43.550Z,83.95
2023-02-03T20:36:40.153Z,84.03
2023-02-03T20:39:43.513Z,84.03
2023-02-03T20:44:44.671Z,84.33
2023-02-03T20:51:12.357Z,84.97
2023-02-03T20:53:25.245Z,84.97
2023-02-03T20:54:46.863Z,84.97
2023-02-03T20:55:50.217Z,85.53
2023-02-03T20:56:47.914Z,85.53
2023-02-03T20:59:44.921Z,85.53
2023-02-03T21:02:58.575Z,85.16
2023-02-03T21:04:53.394Z,85.16
2023-02-03T21:09:43.599Z,85.24
2023-02-03T21:14:47.977Z,85.67
2023-02-03T21:19:43.713Z,85.54
2023-02-03T21:24:47.529Z,85.53
2023-02-03T21:29:43.622Z,85.28
2023-02-03T21:34:44.798Z,85.21
2023-02-03T21:36:44.089Z,85.16
2023-02-03T21:39:45.314Z,85.16
2023-02-03T21:43:59.465Z,85.36
2023-02-03T21:44:49.647Z,85.36
2023-02-03T21:49:30.098Z,85.59
2023-02-03T21:49:43.843Z,85.59
2023-02-03T21:54:43.697Z,85.72
2023-02-03T21:55:22.285Z,85.72
2023-02-03T21:59:45.932Z,85.64
2023-02-03T22:04:43.396Z,85.90
2023-02-03T22:08:58.669Z,85.72
2023-02-03T22:09:45.899Z,85.72
2023-02-03T22:10:12.222Z,85.72
2023-02-03T22:14:43.504Z,85.75
2023-02-03T22:19:43.678Z,85.62
2023-02-03T22:24:43.629Z,85.50
2023-02-03T22:29:44.860Z,85.49
2023-02-03T22:34:43.554Z,85.68
2023-02-03T22:35:17.505Z,85.68
2023-02-03T22:37:53.667Z,85.65
2023-02-03T22:39:43.586Z,85.65
2023-02-03T22:43:18.557Z,85.65
2023-02-03T22:44:43.455Z,85.65
2023-02-03T22:45:50.935Z,85.60
2023-02-03T22:49:43.530Z,85.60
2023-02-03T22:54:43.631Z,86.02
2023-02-03T22:59:43.501Z,86.37
2023-02-03T23:04:25.113Z,86.75
2023-02-03T23:04:43.481Z,86.75
2023-02-03T23:09:43.520Z,86.71
2023-02-03T23:14:43.722Z,86.62
2023-02-03T23:19:43.660Z,86.75
2023-02-03T23:23:58.132Z,87.33
2023-02-03T23:24:43.348Z,87.33
2023-02-03T23:29:43.832Z,87.15
2023-02-03T23:30:52.555Z,87.28
2023-02-03T23:34:53.291Z,87.28
2023-02-03T23:38:54.208Z,88.13
2023-02-03T23:39:43.336Z,88.13
2023-02-03T23:43:49.628Z,88.71
2023-02-03T23:44:43.368Z,88.71
2023-02-03T23:49:43.459Z,89.14
2023-02-03T23:49:59.529Z,89.14
2023-02-03T23:54:43.380Z,89.39
2023-02-03T23:59:43.465Z,89.47
